Mason City Municipal Airport
KMCW : now visible

Airfield :











YOU CAN JOIN US ON...

 
LOGIN :

Register | Disclaimer

   EN    FR    IT 

 









Legend :    VFR   Marginal VFR   IFR   Intensive IFR   Very Intensive IFR
Visi :
Ceiling :
>= 8 km
>= 3000ft
5 to 8 km
1000 to 3000 ft
1500m to 5 km
500 to 1000 ft
800 to 1500m
200 to 500 ft
< 800m
< 200 ft
Symbols :   Thunderstorms  Fog  Heavy snow  Heavy precipitations  Wind > 20 kt






- Airport Elevation : 1213 ft


KMCW - Mason City Municipal

CURRENT METAR :
  • 282053Z AUTO 30017G22KT 10SM CLR M06/M17 A3022 RMK AO2 SLP255 T10561172 58001

EXPIRED METARs :
  • 281953Z AUTO 28017G24KT 10SM CLR M07/M17 A3023 RMK AO2 PK WND 28027/1931 SLP257 T10671167
  • 281853Z AUTO 30013G21KT 10SM CLR M08/M17 A3022 RMK AO2 SLP254 T10781167
  • 281753Z AUTO 30019G23KT 10SM CLR M09/M17 A3023 RMK AO2 SLP257 T10941167 11094 21172 51022
  • 281653Z AUTO 31014KT 10SM CLR M11/M18 A3021 RMK AO2 SLP249 T11111178

TAF KMCW
Valid from the 28 at 18:00 until the 29 at 18:00 UTC


281731Z 2818/2918 31013G21KT P6SM SKC
FM282300 29010KT P6SM SKC
FM290600 16006KT P6SM SKC
FM291500 20014G25KT P6SM SKC
KZMP FIR / North America



MET'MAP, your aeronautical weather chart ! - Copyright ORBIFLY December 2007 - Disclaimer

ORBIFLY MET'MAP TEAM :

Programming & Development : Alexandra Zaïnal
Original concept : Baudouin d'Aumeries
Technical & hardware support : Manuel Goepfert
Assistance : Marc-Olivier Méhu




SOURCES & CREDITS :

   NOAA       Earth
Advisory